Time;durP1;ratioP1;P1;durP2;ratioP2;P2;SDS_P1;SDS_P2;PMS_P1;PMS_P2;Temp;Humidity;BMP_temperature;BMP_pressure;BME280_temperature;BME280_humidity;BME280_pressure;Samples;Min_cycle;Max_cycle;Signal;HPM_P1;HPM_P2
2023/05/18 00:00:20;;;;;;;4.22;1.52;;;10.10;59.50;;;;;;5010745;28;20277;-76
2023/05/18 00:02:48;;;;;;;6.65;1.63;;;10.10;59.60;;;;;;5009234;28;20101;-77
2023/05/18 00:05:16;;;;;;;10.25;2.00;;;10.10;59.60;;;;;;4992576;28;20058;-76
2023/05/18 00:07:43;;;;;;;7.18;1.80;;;10.00;59.50;;;;;;4992478;28;20081;-76
2023/05/18 00:10:11;;;;;;;6.63;1.83;;;10.10;59.50;;;;;;4991418;28;20047;-76
2023/05/18 00:12:39;;;;;;;6.05;1.75;;;10.00;59.50;;;;;;4992589;28;20253;-77
2023/05/18 00:15:07;;;;;;;7.57;2.05;;;10.00;59.60;;;;;;5002518;28;20073;-76
2023/05/18 00:17:35;;;;;;;6.07;1.98;;;10.00;59.70;;;;;;5025273;28;20504;-77
2023/05/18 00:20:03;;;;;;;7.03;2.15;;;10.00;59.70;;;;;;5007903;28;20058;-76
2023/05/18 00:22:31;;;;;;;7.00;1.80;;;10.00;59.90;;;;;;5008809;28;20555;-76
2023/05/18 00:24:58;;;;;;;5.93;1.80;;;10.00;59.90;;;;;;5008847;28;20257;-77
2023/05/18 00:27:24;;;;;;;5.78;1.70;;;10.00;60.00;;;;;;5006610;28;20100;-77
2023/05/18 00:29:55;;;;;;;7.20;1.70;;;10.00;60.20;;;;;;4992033;28;20055;-77
2023/05/18 00:32:21;;;;;;;5.32;1.50;;;10.00;60.40;;;;;;4992540;28;20125;-77
2023/05/18 00:34:48;;;;;;;4.77;1.67;;;10.00;60.50;;;;;;4993545;28;20534;-77
2023/05/18 00:37:15;;;;;;;6.07;1.30;;;10.00;60.50;;;;;;5014348;28;20764;-76
2023/05/18 00:39:42;;;;;;;5.63;1.70;;;10.00;60.80;;;;;;4997522;28;20665;-77
2023/05/18 00:42:09;;;;;;;7.60;1.60;;;10.00;60.50;;;;;;5005938;28;20082;-76
2023/05/18 00:44:36;;;;;;;5.68;1.65;;;10.00;60.70;;;;;;4992341;28;20602;-76
2023/05/18 00:47:04;;;;;;;5.40;1.83;;;10.00;60.60;;;;;;4991909;28;20406;-77
2023/05/18 00:49:31;;;;;;;7.95;1.80;;;9.90;60.90;;;;;;4992186;28;20282;-76
2023/05/18 00:51:58;;;;;;;8.68;1.95;;;9.90;60.90;;;;;;5010071;28;20054;-76
2023/05/18 00:54:26;;;;;;;6.85;1.70;;;9.90;60.90;;;;;;5008494;28;20052;-77
2023/05/18 00:56:53;;;;;;;6.22;1.85;;;9.90;60.90;;;;;;4992447;28;20053;-76
2023/05/18 00:59:20;;;;;;;7.57;1.60;;;9.90;60.80;;;;;;4987189;28;20054;-77
2023/05/18 01:01:47;;;;;;;5.30;1.73;;;9.80;60.70;;;;;;5003887;28;20254;-77
2023/05/18 01:04:16;;;;;;;7.28;1.85;;;9.80;60.80;;;;;;5009568;28;20054;-77
2023/05/18 01:06:45;;;;;;;8.23;2.00;;;9.80;60.90;;;;;;5008141;28;20050;-77
2023/05/18 01:09:13;;;;;;;7.13;1.70;;;9.80;60.90;;;;;;5009260;28;20089;-77
2023/05/18 01:11:51;;;;;;;6.80;1.80;;;9.80;61.00;;;;;;4991669;28;20077;-77
2023/05/18 01:14:26;;;;;;;7.75;1.80;;;9.80;61.10;;;;;;5006164;28;20345;-78
2023/05/18 01:16:58;;;;;;;4.85;1.70;;;9.80;60.90;;;;;;5003675;28;20046;-77
2023/05/18 01:19:50;;;;;;;6.80;1.75;;;9.80;60.90;;;;;;4989348;28;20161;-76
2023/05/18 01:22:37;;;;;;;6.00;1.65;;;9.80;60.90;;;;;;5002515;28;20055;-77
2023/05/18 01:25:13;;;;;;;7.90;2.00;;;9.80;60.90;;;;;;5003559;28;20503;-78
2023/05/18 01:27:45;;;;;;;7.57;1.85;;;9.70;61.00;;;;;;4990332;28;20309;-77
2023/05/18 01:30:15;;;;;;;6.30;1.70;;;9.70;60.90;;;;;;5005851;28;20472;-77
2023/05/18 01:32:45;;;;;;;9.68;1.88;;;9.70;61.10;;;;;;4991086;28;20053;-77
2023/05/18 01:35:12;;;;;;;7.53;1.95;;;9.70;61.00;;;;;;5000841;28;20058;-77
2023/05/18 01:37:39;;;;;;;6.60;2.03;;;9.70;61.00;;;;;;4991595;28;20047;-77
2023/05/18 01:40:08;;;;;;;5.95;1.60;;;9.70;60.80;;;;;;5008870;28;20332;-77
2023/05/18 01:42:55;;;;;;;6.70;1.77;;;9.70;61.00;;;;;;4990168;28;20050;-77
2023/05/18 01:45:27;;;;;;;6.38;1.80;;;9.60;61.10;;;;;;4987879;28;20139;-77
2023/05/18 01:48:02;;;;;;;4.57;1.67;;;9.60;61.10;;;;;;5013565;28;20059;-77
2023/05/18 01:50:36;;;;;;;7.00;1.70;;;9.60;61.00;;;;;;5010886;28;20081;-77
2023/05/18 01:53:13;;;;;;;4.82;1.60;;;9.60;61.20;;;;;;4990000;28;20242;-77
2023/05/18 01:55:41;;;;;;;7.78;1.90;;;9.60;61.20;;;;;;5007796;28;20086;-77
2023/05/18 01:58:11;;;;;;;6.65;1.60;;;9.60;61.20;;;;;;5007684;28;20058;-77
2023/05/18 02:00:38;;;;;;;5.47;1.67;;;9.60;61.30;;;;;;4990764;28;20070;-77
2023/05/18 02:03:05;;;;;;;6.07;1.90;;;9.60;61.20;;;;;;4990185;28;20050;-77
2023/05/18 02:05:33;;;;;;;6.78;1.70;;;9.60;61.30;;;;;;5007549;28;20262;-77
2023/05/18 02:08:01;;;;;;;8.10;1.80;;;9.60;61.50;;;;;;5000098;28;20053;-77
2023/05/18 02:10:28;;;;;;;6.15;1.90;;;9.60;61.70;;;;;;4989094;28;20169;-77
2023/05/18 02:12:55;;;;;;;5.45;1.88;;;9.50;61.70;;;;;;4994187;28;20111;-77
2023/05/18 02:15:23;;;;;;;4.93;2.07;;;9.50;61.70;;;;;;5009664;28;20050;-77
2023/05/18 02:17:51;;;;;;;6.82;2.10;;;9.50;61.90;;;;;;4992864;28;20261;-77
2023/05/18 02:20:18;;;;;;;8.02;2.50;;;9.50;61.90;;;;;;4999342;28;20161;-77
2023/05/18 02:22:45;;;;;;;6.10;1.83;;;9.50;62.10;;;;;;4990660;28;20190;-77
2023/05/18 02:25:13;;;;;;;6.45;1.92;;;9.50;62.20;;;;;;4989577;28;20054;-77
2023/05/18 02:27:40;;;;;;;7.27;2.00;;;9.50;62.10;;;;;;5005326;28;20042;-77
2023/05/18 02:30:08;;;;;;;9.20;2.22;;;9.50;62.00;;;;;;4990511;28;20353;-77
2023/05/18 02:32:37;;;;;;;5.32;1.98;;;9.50;62.20;;;;;;4990822;28;20054;-77
2023/05/18 02:35:07;;;;;;;4.90;2.17;;;9.50;62.20;;;;;;4990559;28;20508;-77
2023/05/18 02:37:38;;;;;;;7.15;2.20;;;9.50;62.40;;;;;;4990507;28;20043;-77
2023/05/18 02:40:09;;;;;;;6.17;1.80;;;9.50;62.50;;;;;;5006696;28;20129;-77
2023/05/18 02:42:36;;;;;;;6.70;2.05;;;9.50;62.70;;;;;;4991183;28;20258;-77
2023/05/18 02:45:03;;;;;;;6.68;2.10;;;9.50;62.40;;;;;;5006887;28;20058;-77
2023/05/18 02:47:30;;;;;;;7.75;2.30;;;9.50;62.50;;;;;;4988684;28;20074;-77
2023/05/18 02:49:59;;;;;;;6.35;2.13;;;9.40;62.50;;;;;;4989395;28;20656;-77
2023/05/18 02:52:26;;;;;;;7.37;2.40;;;9.50;62.60;;;;;;4989776;28;20518;-77
2023/05/18 02:54:54;;;;;;;5.75;2.10;;;9.50;62.70;;;;;;4990652;28;20360;-77
2023/05/18 02:57:30;;;;;;;5.68;2.00;;;9.40;62.70;;;;;;4990541;28;20049;-77
2023/05/18 03:00:08;;;;;;;6.43;2.15;;;9.40;62.60;;;;;;4990366;28;20119;-77
2023/05/18 03:02:37;;;;;;;7.28;2.30;;;9.40;63.00;;;;;;4989567;28;20149;-77
2023/05/18 03:05:08;;;;;;;8.47;2.50;;;9.40;63.20;;;;;;4990597;28;20081;-77
2023/05/18 03:07:35;;;;;;;7.45;2.05;;;9.40;63.40;;;;;;4984792;28;20280;-77
2023/05/18 03:10:02;;;;;;;9.75;2.47;;;9.40;63.30;;;;;;4992791;28;20069;-77
2023/05/18 03:12:31;;;;;;;7.38;2.20;;;9.40;63.30;;;;;;4989958;28;20043;-77
2023/05/18 03:14:58;;;;;;;7.70;2.10;;;9.40;63.20;;;;;;5008139;28;20055;-78
2023/05/18 03:17:25;;;;;;;6.73;2.10;;;9.40;63.20;;;;;;5006352;28;20117;-78
2023/05/18 03:19:52;;;;;;;7.20;2.03;;;9.40;63.20;;;;;;4988778;28;20293;-78
2023/05/18 03:22:20;;;;;;;6.68;2.17;;;9.40;63.00;;;;;;5004179;28;20468;-77
2023/05/18 03:24:50;;;;;;;6.88;2.10;;;9.40;63.30;;;;;;4990350;28;20046;-77
2023/05/18 03:27:19;;;;;;;7.10;2.25;;;9.40;63.20;;;;;;4993973;28;20046;-77
2023/05/18 03:29:46;;;;;;;6.10;2.37;;;9.40;63.20;;;;;;4985713;28;20056;-77
2023/05/18 03:32:13;;;;;;;8.05;2.38;;;9.40;63.30;;;;;;4998619;28;20264;-77
2023/05/18 03:34:40;;;;;;;6.38;2.15;;;9.40;63.60;;;;;;5006837;28;20051;-77
2023/05/18 03:37:07;;;;;;;6.90;2.00;;;9.40;63.30;;;;;;4991680;28;20536;-78
2023/05/18 03:39:36;;;;;;;6.63;1.75;;;9.40;63.60;;;;;;5009165;28;20046;-77
2023/05/18 03:42:03;;;;;;;6.93;2.00;;;9.40;63.80;;;;;;4992715;28;20548;-77
2023/05/18 03:44:30;;;;;;;10.60;1.95;;;9.40;63.50;;;;;;4993059;28;20281;-77
2023/05/18 03:46:57;;;;;;;6.32;1.90;;;9.40;63.60;;;;;;5007165;28;20077;-77
2023/05/18 03:49:24;;;;;;;6.50;1.75;;;9.40;63.60;;;;;;4989414;28;20050;-77
2023/05/18 03:51:53;;;;;;;5.35;1.67;;;9.40;63.70;;;;;;4987459;28;20567;-77
2023/05/18 03:54:20;;;;;;;6.17;2.40;;;9.40;63.50;;;;;;4995414;28;20046;-77
2023/05/18 03:56:49;;;;;;;4.35;1.65;;;9.40;63.60;;;;;;5009598;28;20265;-77
2023/05/18 03:59:17;;;;;;;6.55;1.90;;;9.40;63.40;;;;;;4993471;28;20050;-77
2023/05/18 04:01:44;;;;;;;7.07;1.90;;;9.40;63.30;;;;;;4992768;28;20111;-77
2023/05/18 04:04:16;;;;;;;6.57;1.77;;;9.40;63.50;;;;;;4993023;28;20046;-77
2023/05/18 04:06:45;;;;;;;5.17;1.70;;;9.40;63.20;;;;;;5004651;28;20535;-77
2023/05/18 04:09:13;;;;;;;7.55;1.63;;;9.40;63.50;;;;;;4999735;28;20373;-77
2023/05/18 04:11:42;;;;;;;4.50;1.60;;;9.40;63.40;;;;;;5008090;28;20054;-77
2023/05/18 04:14:11;;;;;;;6.40;2.00;;;9.40;63.50;;;;;;5009120;28;20133;-77
2023/05/18 04:16:38;;;;;;;9.63;2.10;;;9.40;63.90;;;;;;4994299;28;20543;-77
2023/05/18 04:19:06;;;;;;;4.77;1.90;;;9.40;63.80;;;;;;4992486;28;20140;-77
2023/05/18 04:21:34;;;;;;;6.82;1.88;;;9.40;63.70;;;;;;4988648;28;20254;-78
2023/05/18 04:24:03;;;;;;;9.40;2.00;;;9.40;63.70;;;;;;4991423;28;20097;-77
2023/05/18 04:26:31;;;;;;;7.15;1.92;;;9.40;64.00;;;;;;4994662;28;20575;-77
2023/05/18 04:28:59;;;;;;;6.30;1.73;;;9.40;63.80;;;;;;4985452;28;20046;-77
2023/05/18 04:31:28;;;;;;;5.43;2.07;;;9.40;63.70;;;;;;4996304;28;20065;-77
2023/05/18 04:33:56;;;;;;;5.70;1.63;;;9.40;63.70;;;;;;4992020;28;20250;-77
2023/05/18 04:36:29;;;;;;;6.25;1.80;;;9.40;63.80;;;;;;5008660;28;20040;-77
2023/05/18 04:38:58;;;;;;;7.03;1.98;;;9.40;64.10;;;;;;4991236;28;20051;-78
2023/05/18 04:41:25;;;;;;;5.07;1.80;;;9.40;64.20;;;;;;4992011;28;20051;-77
2023/05/18 04:43:52;;;;;;;7.17;2.20;;;9.40;64.40;;;;;;5008796;28;20046;-77
2023/05/18 04:46:21;;;;;;;133.35;11.43;;;9.40;64.60;;;;;;4990952;28;20262;-77
2023/05/18 04:48:52;;;;;;;30.10;3.65;;;9.40;64.70;;;;;;4990812;28;20540;-78
2023/05/18 04:51:20;;;;;;;9.57;2.25;;;9.40;65.00;;;;;;4991051;28;20055;-77
2023/05/18 04:53:49;;;;;;;13.57;2.85;;;9.40;64.90;;;;;;4988617;28;20461;-77
2023/05/18 04:56:16;;;;;;;10.97;2.50;;;9.40;64.70;;;;;;4992303;28;20141;-77
2023/05/18 04:58:46;;;;;;;18.30;3.53;;;9.40;64.70;;;;;;4992145;28;20274;-77
2023/05/18 05:01:15;;;;;;;11.15;2.78;;;9.40;64.90;;;;;;5009653;28;20058;-77
2023/05/18 05:03:42;;;;;;;8.95;2.85;;;9.40;64.60;;;;;;4991351;28;20042;-78
2023/05/18 05:06:11;;;;;;;6.47;1.92;;;9.40;64.70;;;;;;5008642;28;20058;-77
2023/05/18 05:08:39;;;;;;;8.27;1.90;;;9.40;64.90;;;;;;4989717;28;20567;-78
2023/05/18 05:11:06;;;;;;;8.75;2.38;;;9.40;64.70;;;;;;4989342;28;20954;-78
2023/05/18 05:13:34;;;;;;;7.45;1.90;;;9.40;64.90;;;;;;4991225;28;20504;-78
2023/05/18 05:16:01;;;;;;;7.65;1.70;;;9.40;64.90;;;;;;4999954;28;20061;-78
2023/05/18 05:18:29;;;;;;;4.85;1.75;;;9.40;64.90;;;;;;5007816;28;21045;-78
2023/05/18 05:20:58;;;;;;;4.70;1.30;;;9.50;64.80;;;;;;4987888;28;20567;-78
2023/05/18 05:23:26;;;;;;;8.90;2.03;;;9.50;64.70;;;;;;4991654;28;20332;-78
2023/05/18 05:25:56;;;;;;;5.72;1.85;;;9.50;64.80;;;;;;4991687;28;20051;-77
2023/05/18 05:28:23;;;;;;;7.13;1.80;;;9.50;64.90;;;;;;5007681;28;20109;-77
2023/05/18 05:30:50;;;;;;;4.90;1.58;;;9.50;64.90;;;;;;4997100;28;20050;-78
2023/05/18 05:33:18;;;;;;;5.97;1.50;;;9.50;64.80;;;;;;4985495;28;20053;-78
2023/05/18 05:35:46;;;;;;;6.30;1.65;;;9.50;64.80;;;;;;4988311;28;20246;-78
2023/05/18 05:38:13;;;;;;;7.07;1.88;;;9.50;64.80;;;;;;4990984;28;20177;-77
2023/05/18 05:40:41;;;;;;;5.75;1.45;;;9.50;64.70;;;;;;4989368;28;20074;-78
2023/05/18 05:43:09;;;;;;;7.05;1.67;;;9.50;64.70;;;;;;4989610;28;20050;-78
2023/05/18 05:45:36;;;;;;;6.50;1.53;;;9.50;64.70;;;;;;4990182;28;20574;-78
2023/05/18 05:48:08;;;;;;;8.75;1.58;;;9.50;64.60;;;;;;4989034;28;20290;-77
2023/05/18 05:50:35;;;;;;;6.68;1.50;;;9.50;64.50;;;;;;4981113;28;20093;-78
2023/05/18 05:53:05;;;;;;;7.47;1.30;;;9.50;64.40;;;;;;4989410;28;21097;-78
2023/05/18 05:55:39;;;;;;;8.13;1.40;;;9.50;64.30;;;;;;5005849;28;20047;-78
2023/05/18 05:58:09;;;;;;;5.23;1.40;;;9.50;64.20;;;;;;4989476;28;20046;-78
2023/05/18 06:00:36;;;;;;;5.10;1.20;;;9.50;64.10;;;;;;4989288;28;20817;-77
2023/05/18 06:03:04;;;;;;;8.32;1.50;;;9.50;64.10;;;;;;5005601;28;20050;-77
2023/05/18 06:05:35;;;;;;;5.95;1.40;;;9.50;63.90;;;;;;4989748;28;20125;-78
2023/05/18 06:08:05;;;;;;;4.65;1.20;;;9.50;63.70;;;;;;4989712;28;20146;-78
2023/05/18 06:10:32;;;;;;;7.37;1.20;;;9.50;63.70;;;;;;5000559;28;20133;-77
2023/05/18 06:12:59;;;;;;;5.57;1.20;;;9.50;63.70;;;;;;4981959;28;20353;-77
2023/05/18 06:15:36;;;;;;;6.57;1.38;;;9.60;63.50;;;;;;4986235;28;20054;-77
2023/05/18 06:18:03;;;;;;;4.97;1.45;;;9.50;63.70;;;;;;4987201;28;20093;-78
2023/05/18 06:20:30;;;;;;;5.72;1.40;;;9.60;63.60;;;;;;4990530;28;20057;-78
2023/05/18 06:22:58;;;;;;;5.93;1.37;;;9.50;63.90;;;;;;4992567;28;20049;-78
2023/05/18 06:25:44;;;;;;;7.60;1.52;;;9.60;63.80;;;;;;4999731;28;20266;-78
2023/05/18 06:28:20;;;;;;;5.22;1.20;;;9.60;63.90;;;;;;5001080;28;20061;-78
2023/05/18 06:30:52;;;;;;;6.35;1.40;;;9.60;63.90;;;;;;4987662;28;20173;-79
2023/05/18 06:33:22;;;;;;;5.25;1.08;;;9.70;63.90;;;;;;4984961;28;20055;-79
2023/05/18 06:35:49;;;;;;;4.77;1.20;;;9.70;63.70;;;;;;4989878;28;20049;-78
2023/05/18 06:38:16;;;;;;;7.68;1.77;;;9.70;63.70;;;;;;5005612;28;20817;-78
2023/05/18 06:40:44;;;;;;;4.30;1.17;;;9.80;63.40;;;;;;4988795;28;20051;-78
2023/05/18 06:43:11;;;;;;;5.85;1.42;;;9.70;63.30;;;;;;4989196;28;20411;-78
2023/05/18 06:45:46;;;;;;;7.80;1.60;;;9.80;63.30;;;;;;5005255;28;20090;-78
2023/05/18 06:48:21;;;;;;;3.93;1.03;;;9.80;63.30;;;;;;5010284;28;20055;-77
2023/05/18 06:50:49;;;;;;;5.97;1.48;;;9.80;63.50;;;;;;4987585;28;20254;-78
2023/05/18 06:53:16;;;;;;;5.55;1.50;;;9.90;63.60;;;;;;5002439;28;20060;-77
2023/05/18 06:55:44;;;;;;;6.28;1.50;;;10.00;63.40;;;;;;5005219;28;20105;-78
2023/05/18 06:58:12;;;;;;;6.88;1.27;;;10.00;63.40;;;;;;4988523;28;20042;-78
2023/05/18 07:00:39;;;;;;;5.90;1.57;;;10.00;63.50;;;;;;5003014;28;20054;-78
2023/05/18 07:03:08;;;;;;;3.97;1.08;;;10.00;63.40;;;;;;4990366;28;20946;-78
2023/05/18 07:05:36;;;;;;;6.05;1.33;;;10.00;63.30;;;;;;5006786;28;20058;-78
2023/05/18 07:08:03;;;;;;;4.38;1.27;;;10.10;63.20;;;;;;5004766;28;20659;-78
2023/05/18 07:10:30;;;;;;;5.60;1.38;;;10.10;63.30;;;;;;5009498;28;20050;-77
2023/05/18 07:12:57;;;;;;;6.80;1.37;;;10.10;63.20;;;;;;5004408;28;20074;-78
2023/05/18 07:15:25;;;;;;;6.47;1.42;;;10.20;63.00;;;;;;5007441;28;20270;-78
2023/05/18 07:17:52;;;;;;;5.63;1.60;;;10.20;63.10;;;;;;5003766;28;20051;-78
2023/05/18 07:20:28;;;;;;;14.52;1.77;;;10.20;63.20;;;;;;5001988;28;20058;-78
2023/05/18 07:22:57;;;;;;;9.07;1.55;;;10.30;63.20;;;;;;5004029;28;20058;-78
2023/05/18 07:25:25;;;;;;;5.23;1.50;;;10.30;62.90;;;;;;5006363;28;20078;-78
2023/05/18 07:27:53;;;;;;;8.45;1.10;;;10.30;62.80;;;;;;5002576;28;20274;-77
2023/05/18 07:30:20;;;;;;;7.00;1.20;;;10.40;62.60;;;;;;5008517;28;20055;-78
2023/05/18 07:32:47;;;;;;;5.22;1.08;;;10.40;62.50;;;;;;4991524;28;20061;-78
2023/05/18 07:35:18;;;;;;;6.35;1.40;;;10.40;62.40;;;;;;5010810;28;20049;-78
2023/05/18 07:37:45;;;;;;;5.80;1.10;;;10.50;62.50;;;;;;5003750;28;20042;-78
2023/05/18 07:40:13;;;;;;;6.63;1.30;;;10.50;62.40;;;;;;5006730;28;20336;-77
2023/05/18 07:42:41;;;;;;;7.40;1.45;;;10.60;62.30;;;;;;5010567;28;20113;-78
2023/05/18 07:45:09;;;;;;;7.60;1.48;;;10.60;62.00;;;;;;5004724;28;20046;-78
2023/05/18 07:47:36;;;;;;;5.40;1.40;;;10.60;62.10;;;;;;5007881;28;20054;-78
2023/05/18 07:50:04;;;;;;;8.03;1.40;;;10.70;61.80;;;;;;5008075;28;20053;-76
2023/05/18 07:52:31;;;;;;;4.35;1.17;;;10.70;61.90;;;;;;5008560;28;20333;-78
2023/05/18 07:54:58;;;;;;;5.45;1.35;;;10.70;61.50;;;;;;5008480;28;20061;-79
2023/05/18 07:57:28;;;;;;;5.88;1.40;;;10.80;61.50;;;;;;5005880;28;20050;-81
2023/05/18 07:59:55;;;;;;;8.20;1.67;;;10.80;61.60;;;;;;5007323;28;20061;-81
2023/05/18 08:02:22;;;;;;;5.53;1.10;;;10.90;61.30;;;;;;5009480;28;20043;-82
2023/05/18 08:04:49;;;;;;;6.00;1.42;;;10.90;61.10;;;;;;5010438;28;20265;-82
2023/05/18 08:07:18;;;;;;;4.70;1.55;;;11.00;61.10;;;;;;4995164;28;20805;-84
2023/05/18 08:09:45;;;;;;;4.32;1.33;;;11.00;60.90;;;;;;5015574;28;20050;-83
2023/05/18 08:12:12;;;;;;;7.25;1.30;;;11.10;61.00;;;;;;5012326;28;20050;-79
2023/05/18 08:14:40;;;;;;;6.97;1.27;;;11.10;60.90;;;;;;5002870;28;20050;-79
2023/05/18 08:17:07;;;;;;;14.23;2.10;;;11.10;60.70;;;;;;4985032;28;20360;-78
2023/05/18 08:19:34;;;;;;;6.57;1.30;;;11.30;60.70;;;;;;5001122;28;20054;-79
2023/05/18 08:22:01;;;;;;;6.40;1.55;;;11.30;60.70;;;;;;4998172;28;20138;-79
2023/05/18 08:24:27;;;;;;;5.13;1.20;;;11.40;60.70;;;;;;5006748;28;20453;-80
2023/05/18 08:26:54;;;;;;;7.37;1.60;;;11.40;60.90;;;;;;5001794;28;20053;-79
2023/05/18 08:29:21;;;;;;;8.27;1.73;;;11.50;61.00;;;;;;5000622;28;20257;-79
2023/05/18 08:31:51;;;;;;;7.32;1.50;;;11.50;60.80;;;;;;5005648;28;20444;-80
2023/05/18 08:34:18;;;;;;;6.07;1.30;;;11.70;60.50;;;;;;5012853;28;20059;-81
2023/05/18 08:36:45;;;;;;;5.25;1.23;;;11.70;60.30;;;;;;5013697;28;20531;-81
2023/05/18 08:39:12;;;;;;;9.53;1.70;;;11.70;60.30;;;;;;5017897;28;20081;-79
2023/05/18 08:41:48;;;;;;;6.90;1.25;;;11.80;60.00;;;;;;5009455;28;20338;-78
2023/05/18 08:44:19;;;;;;;4.95;1.20;;;11.90;59.80;;;;;;5015333;28;20595;-79
2023/05/18 08:46:51;;;;;;;8.27;1.70;;;11.90;59.70;;;;;;5011197;28;20057;-80
2023/05/18 08:49:19;;;;;;;7.38;1.50;;;11.90;59.60;;;;;;5018141;28;20169;-77
2023/05/18 08:51:48;;;;;;;5.43;1.43;;;11.90;59.60;;;;;;5009135;28;20599;-80
2023/05/18 08:54:20;;;;;;;7.00;1.48;;;12.00;59.60;;;;;;5036420;28;20270;-82
2023/05/18 08:56:48;;;;;;;6.72;1.30;;;12.10;59.40;;;;;;4997539;28;20439;-81
2023/05/18 08:59:18;;;;;;;7.35;1.80;;;12.10;59.60;;;;;;5005423;28;20134;-79
2023/05/18 09:01:46;;;;;;;7.72;1.30;;;12.20;59.80;;;;;;5007611;28;20671;-81
2023/05/18 09:04:15;;;;;;;7.30;1.70;;;12.30;59.00;;;;;;5012841;28;20050;-81
2023/05/18 09:06:46;;;;;;;5.07;1.25;;;12.40;59.10;;;;;;5012037;28;20876;-79
2023/05/18 09:09:15;;;;;;;5.38;1.25;;;12.50;59.30;;;;;;5013248;28;20110;-80
2023/05/18 09:11:42;;;;;;;6.25;1.75;;;12.50;59.00;;;;;;5022392;28;20050;-80
2023/05/18 09:14:09;;;;;;;5.65;1.42;;;12.50;58.80;;;;;;5013500;28;20058;-80
2023/05/18 09:16:36;;;;;;;6.53;1.80;;;12.60;58.60;;;;;;4999562;28;20094;-80
2023/05/18 09:19:03;;;;;;;6.10;1.73;;;12.70;58.70;;;;;;5003571;28;20265;-80
2023/05/18 09:21:32;;;;;;;5.88;1.30;;;12.80;58.30;;;;;;5009628;28;20081;-79
2023/05/18 09:23:59;;;;;;;5.05;1.38;;;12.80;58.20;;;;;;5001917;28;20058;-80
2023/05/18 09:26:27;;;;;;;5.80;1.50;;;12.90;58.40;;;;;;5001535;28;20167;-81
2023/05/18 09:28:54;;;;;;;6.10;1.40;;;12.90;58.50;;;;;;5001574;28;20472;-81
2023/05/18 09:31:25;;;;;;;6.45;1.42;;;13.00;58.00;;;;;;5003883;28;20754;-79
2023/05/18 09:33:52;;;;;;;15.38;2.03;;;13.00;58.20;;;;;;5003384;28;20049;-79
2023/05/18 09:36:25;;;;;;;6.72;1.80;;;13.10;58.40;;;;;;5000775;28;20049;-79
2023/05/18 09:38:53;;;;;;;6.90;1.50;;;13.10;58.20;;;;;;5005515;28;20076;-80
2023/05/18 09:41:20;;;;;;;5.20;1.33;;;13.20;57.90;;;;;;5006373;28;20625;-79
2023/05/18 09:43:49;;;;;;;5.68;1.38;;;13.30;57.30;;;;;;5002607;28;20282;-79
2023/05/18 09:46:16;;;;;;;8.00;1.52;;;13.30;57.00;;;;;;4985303;28;20634;-77
2023/05/18 09:48:46;;;;;;;5.57;1.20;;;13.30;56.80;;;;;;4999310;28;20058;-78
2023/05/18 09:51:16;;;;;;;6.38;1.63;;;13.30;56.60;;;;;;5000067;28;20149;-78
2023/05/18 09:53:43;;;;;;;5.03;1.40;;;13.30;56.40;;;;;;5002559;28;20729;-77
2023/05/18 09:56:13;;;;;;;5.70;1.52;;;13.30;56.20;;;;;;4997324;28;20310;-78
2023/05/18 09:58:41;;;;;;;18.98;2.47;;;13.30;55.60;;;;;;5000131;28;20138;-77
2023/05/18 10:01:08;;;;;;;4.60;1.38;;;13.30;55.90;;;;;;5000915;28;20050;-77
2023/05/18 10:03:36;;;;;;;23.50;3.42;;;13.30;55.70;;;;;;4999432;28;20126;-77
2023/05/18 10:06:05;;;;;;;6.90;1.77;;;13.30;56.10;;;;;;5003822;28;20141;-77
2023/05/18 10:08:33;;;;;;;5.78;1.40;;;13.30;56.30;;;;;;5002361;28;20250;-78
2023/05/18 10:11:00;;;;;;;6.65;1.40;;;13.40;56.20;;;;;;4997712;28;20061;-78
2023/05/18 10:13:30;;;;;;;4.75;1.40;;;13.40;56.40;;;;;;4999877;28;20055;-77
2023/05/18 10:15:59;;;;;;;5.53;1.50;;;13.50;56.20;;;;;;5001067;28;20046;-77
2023/05/18 10:18:27;;;;;;;7.77;1.67;;;13.50;56.00;;;;;;4986762;28;20564;-78
2023/05/18 10:20:57;;;;;;;16.63;2.08;;;13.50;56.20;;;;;;5004110;28;20254;-79
2023/05/18 10:23:26;;;;;;;9.32;1.50;;;13.50;56.20;;;;;;5001025;28;20572;-78
2023/05/18 10:25:54;;;;;;;7.32;1.45;;;13.60;56.10;;;;;;5003348;28;20054;-78
2023/05/18 10:28:27;;;;;;;5.88;1.52;;;13.60;55.60;;;;;;5004255;28;20065;-79
2023/05/18 10:30:56;;;;;;;6.93;1.60;;;13.70;55.90;;;;;;4986694;28;20141;-79
2023/05/18 10:33:24;;;;;;;5.75;1.27;;;13.70;56.30;;;;;;4971787;28;20269;-78
2023/05/18 10:35:52;;;;;;;8.32;1.55;;;13.80;56.50;;;;;;5018561;28;20680;-78
2023/05/18 10:38:20;;;;;;;10.35;2.10;;;13.90;56.20;;;;;;5002867;28;20137;-77
2023/05/18 10:40:49;;;;;;;5.15;1.30;;;13.90;55.90;;;;;;5004080;28;20085;-77
2023/05/18 10:43:19;;;;;;;5.53;1.53;;;14.00;55.90;;;;;;5005864;28;20058;-79
2023/05/18 10:45:48;;;;;;;8.90;1.58;;;14.00;56.30;;;;;;5006014;28;20826;-78
2023/05/18 10:48:19;;;;;;;7.75;1.70;;;14.10;56.20;;;;;;5009370;28;20050;-78
2023/05/18 10:50:48;;;;;;;5.68;1.55;;;14.20;56.20;;;;;;5008981;28;20058;-78
2023/05/18 10:53:17;;;;;;;6.57;1.70;;;14.20;56.00;;;;;;5007894;28;20054;-79
2023/05/18 10:55:44;;;;;;;5.40;1.57;;;14.30;55.70;;;;;;5006279;28;20072;-78
2023/05/18 10:58:14;;;;;;;4.85;1.65;;;14.40;55.50;;;;;;5008842;28;20839;-78
2023/05/18 11:00:44;;;;;;;8.23;1.80;;;14.40;55.30;;;;;;5005483;28;20059;-77
2023/05/18 11:03:13;;;;;;;5.40;1.70;;;14.50;55.40;;;;;;5020913;28;20615;-78
2023/05/18 11:05:42;;;;;;;6.85;1.40;;;14.60;55.30;;;;;;5011628;28;20081;-79
2023/05/18 11:08:09;;;;;;;6.13;1.60;;;14.60;55.20;;;;;;5009985;28;20109;-79
2023/05/18 11:10:41;;;;;;;5.75;1.65;;;14.70;55.20;;;;;;5006508;28;20341;-78
2023/05/18 11:13:09;;;;;;;6.32;1.80;;;14.80;55.20;;;;;;5008276;28;20054;-78
2023/05/18 11:16:05;;;;;;;8.02;1.60;;;14.90;55.10;;;;;;5010482;28;20057;-79
2023/05/18 11:18:38;;;;;;;8.35;2.00;;;14.90;56.00;;;;;;5004983;28;20055;-79
2023/05/18 11:21:40;;;;;;;7.23;1.83;;;15.00;55.20;;;;;;5005327;28;20047;-79
2023/05/18 11:24:15;;;;;;;4.50;1.65;;;15.10;54.50;;;;;;4995818;28;20861;-79
2023/05/18 11:26:42;;;;;;;8.80;1.70;;;15.20;54.80;;;;;;5007467;28;20065;-79
2023/05/18 11:29:24;;;;;;;6.53;1.50;;;15.20;55.00;;;;;;5006827;28;20050;-78
2023/05/18 11:31:53;;;;;;;6.90;2.00;;;15.30;55.00;;;;;;5006191;28;20546;-80
2023/05/18 11:34:40;;;;;;;4.07;1.40;;;15.40;54.50;;;;;;4984071;28;20136;-77
2023/05/18 11:37:09;;;;;;;4.95;1.40;;;15.50;54.70;;;;;;5010354;28;20278;-78
2023/05/18 11:39:36;;;;;;;6.78;1.90;;;15.50;54.20;;;;;;5006279;28;20046;-79
2023/05/18 11:42:07;;;;;;;7.35;1.90;;;15.60;54.60;;;;;;5003866;28;20743;-78
2023/05/18 11:44:34;;;;;;;5.78;1.85;;;15.60;54.10;;;;;;5001036;28;20821;-79
2023/05/18 11:47:02;;;;;;;5.07;1.80;;;15.70;54.40;;;;;;5006210;28;20087;-78
2023/05/18 11:49:31;;;;;;;5.22;1.80;;;15.80;54.80;;;;;;5002856;28;20270;-78
2023/05/18 11:52:07;;;;;;;6.68;1.63;;;15.80;54.80;;;;;;5002105;28;20061;-77
2023/05/18 11:54:45;;;;;;;5.15;1.67;;;15.90;54.60;;;;;;5004248;28;20156;-77
2023/05/18 11:57:14;;;;;;;8.20;2.10;;;15.90;54.30;;;;;;5002854;28;20599;-77
2023/05/18 11:59:43;;;;;;;6.93;2.10;;;16.00;54.80;;;;;;5001968;28;20061;-79
2023/05/18 12:02:12;;;;;;;8.43;2.30;;;16.00;54.10;;;;;;5005773;28;20262;-77
2023/05/18 12:04:45;;;;;;;8.30;2.00;;;16.10;53.40;;;;;;5004261;28;20600;-76
2023/05/18 12:07:12;;;;;;;6.13;1.92;;;16.10;52.70;;;;;;5005409;28;20504;-75
2023/05/18 12:09:45;;;;;;;6.70;2.05;;;16.10;52.80;;;;;;5006408;28;20050;-76
2023/05/18 12:12:16;;;;;;;4.63;1.80;;;16.00;52.60;;;;;;5005201;28;20050;-76
2023/05/18 12:14:44;;;;;;;6.88;1.98;;;16.00;52.90;;;;;;5015417;28;20235;-78
2023/05/18 12:17:11;;;;;;;6.82;2.05;;;16.10;54.40;;;;;;5007195;28;20043;-78
2023/05/18 12:19:42;;;;;;;5.32;1.70;;;16.20;53.90;;;;;;5007972;28;20054;-77
2023/05/18 12:22:12;;;;;;;6.90;2.20;;;16.20;53.30;;;;;;5005527;28;20077;-77
2023/05/18 12:24:39;;;;;;;7.00;2.10;;;16.30;53.50;;;;;;5007997;28;20057;-77
2023/05/18 12:27:10;;;;;;;6.03;1.80;;;16.30;53.50;;;;;;5004445;28;20319;-76
2023/05/18 12:29:41;;;;;;;5.10;2.00;;;16.40;53.20;;;;;;5002675;28;20050;-78
2023/05/18 12:32:11;;;;;;;6.90;2.03;;;16.40;53.40;;;;;;4997847;28;20058;-78
2023/05/18 12:34:39;;;;;;;6.25;1.90;;;16.40;53.10;;;;;;5000058;28;20516;-78
2023/05/18 12:37:07;;;;;;;5.10;1.53;;;16.50;53.20;;;;;;5003490;28;20141;-79
2023/05/18 12:39:35;;;;;;;6.13;1.90;;;16.50;53.10;;;;;;5003782;28;20247;-79
2023/05/18 12:42:11;;;;;;;7.03;1.95;;;16.60;53.00;;;;;;5006466;28;20057;-78
2023/05/18 12:44:38;;;;;;;5.95;1.50;;;16.60;52.10;;;;;;5006822;28;20532;-76
2023/05/18 12:47:05;;;;;;;6.63;2.10;;;16.70;51.50;;;;;;5006883;28;20042;-75
2023/05/18 12:49:37;;;;;;;5.30;1.73;;;16.70;51.90;;;;;;5005282;28;20054;-82
2023/05/18 12:52:12;;;;;;;5.95;1.85;;;16.80;51.50;;;;;;5003278;28;20505;-80
2023/05/18 12:55:09;;;;;;;5.88;1.90;;;16.80;51.50;;;;;;5000391;28;20046;-85
2023/05/18 12:57:40;;;;;;;7.15;2.15;;;16.90;52.20;;;;;;4988235;28;20050;-81
2023/05/18 13:00:11;;;;;;;6.63;2.30;;;16.90;51.60;;;;;;4999874;28;20050;-83